Time;durP1;ratioP1;P1;durP2;ratioP2;P2;SDS_P1;SDS_P2;PMS_P1;PMS_P2;Temp;Humidity;BMP_temperature;BMP_pressure;BME280_temperature;BME280_humidity;BME280_pressure;Samples;Min_cycle;Max_cycle;Signal;HPM_P1;HPM_P2
2021/01/02 00:00:08;;;;;;;65.88;35.20;;;;;;;3.85;83.42;100902.41;10220445;28;20104;-65
2021/01/02 00:05:11;;;;;;;57.75;29.17;;;;;;;3.82;83.47;100894.84;10238146;28;20053;-66
2021/01/02 00:10:11;;;;;;;57.88;32.67;;;;;;;3.88;83.71;100896.50;10224915;28;20474;-66
2021/01/02 00:15:12;;;;;;;61.97;31.85;;;;;;;3.86;83.39;100901.34;10213772;28;20055;-66
2021/01/02 00:20:08;;;;;;;58.08;33.13;;;;;;;3.95;83.04;100907.88;10229985;28;20125;-67
2021/01/02 00:25:11;;;;;;;58.65;31.30;;;;;;;3.98;83.45;100907.31;10207572;28;20480;-67
2021/01/02 00:30:11;;;;;;;60.13;31.27;;;;;;;3.89;83.01;100903.50;10240455;28;20049;-66
2021/01/02 00:35:19;;;;;;;52.53;29.25;;;;;;;3.92;82.82;100908.41;10219809;28;20100;-67
2021/01/02 00:40:16;;;;;;;52.70;30.27;;;;;;;3.97;82.88;100916.53;10230921;28;20081;-66
2021/01/02 00:45:23;;;;;;;57.45;27.52;;;;;;;3.99;82.40;100908.13;10203849;28;20053;-67
2021/01/02 00:50:22;;;;;;;50.70;27.80;;;;;;;3.93;81.92;100909.22;10209234;28;20096;-67
2021/01/02 00:55:50;;;;;;;55.95;29.55;;;;;;;3.84;82.83;100917.03;10220569;28;20049;-67
2021/01/02 01:00:55;;;;;;;53.72;28.60;;;;;;;3.90;82.40;100915.97;10218073;28;20056;-67
2021/01/02 01:05:55;;;;;;;48.70;28.23;;;;;;;3.90;82.24;100921.38;10228411;28;20045;-68
2021/01/02 01:10:51;;;;;;;47.88;26.67;;;;;;;3.85;81.73;100918.66;10214135;28;20574;-66
2021/01/02 01:15:48;;;;;;;49.88;26.52;;;;;;;3.89;81.50;100925.16;10227536;28;20094;-67
2021/01/02 01:20:47;;;;;;;46.38;26.17;;;;;;;3.93;81.45;100931.66;10231968;28;20100;-67
2021/01/02 01:26:02;;;;;;;50.25;27.10;;;;;;;3.93;80.57;100936.28;10236868;28;20041;-68
2021/01/02 01:31:01;;;;;;;48.67;26.70;;;;;;;3.88;81.30;100939.78;10239571;28;20049;-67
2021/01/02 01:36:01;;;;;;;52.90;26.30;;;;;;;3.88;81.50;100953.31;10234082;28;20099;-66
2021/01/02 01:41:11;;;;;;;49.15;26.67;;;;;;;3.73;81.67;100947.84;10231341;28;20819;-66
2021/01/02 01:46:13;;;;;;;47.03;27.67;;;;;;;3.76;81.22;100941.88;10218049;28;20064;-67
2021/01/02 01:51:18;;;;;;;49.85;25.08;;;;;;;3.70;81.31;100948.38;10223098;28;20045;-66
2021/01/02 01:56:18;;;;;;;45.05;25.15;;;;;;;3.76;81.86;100952.72;10238854;28;20049;-67
2021/01/02 02:01:22;;;;;;;42.70;22.75;;;;;;;3.66;81.91;100958.09;10223236;28;20554;-67
2021/01/02 02:06:30;;;;;;;42.63;23.63;;;;;;;3.70;82.15;100959.19;10234497;28;20104;-66
2021/01/02 02:11:35;;;;;;;50.05;26.70;;;;;;;3.59;82.42;100959.16;10208031;28;20578;-68
2021/01/02 02:16:40;;;;;;;48.00;26.25;;;;;;;3.67;82.19;100963.25;10231276;28;20049;-66
2021/01/02 02:21:44;;;;;;;48.10;26.88;;;;;;;3.63;81.85;100969.47;10231205;28;20053;-67
2021/01/02 02:26:44;;;;;;;44.35;24.92;;;;;;;3.68;82.28;100970.28;10210304;28;20464;-66
2021/01/02 02:31:42;;;;;;;46.08;26.25;;;;;;;3.66;82.73;100968.91;10220426;28;20514;-66
2021/01/02 02:36:38;;;;;;;47.05;25.63;;;;;;;3.85;81.85;100961.13;10228054;28;20096;-67
2021/01/02 02:41:42;;;;;;;45.60;26.25;;;;;;;3.75;82.57;100962.72;10230867;28;20200;-67
2021/01/02 02:46:44;;;;;;;45.35;25.95;;;;;;;3.87;82.98;100953.56;10228146;28;20069;-66
2021/01/02 02:51:52;;;;;;;44.35;24.33;;;;;;;3.77;81.72;100959.75;10235727;28;20050;-67
2021/01/02 02:56:48;;;;;;;39.47;23.35;;;;;;;3.58;82.63;100962.94;10231829;28;20091;-67
2021/01/02 03:01:48;;;;;;;49.03;27.75;;;;;;;3.52;82.97;100966.69;10213030;28;20141;-67
2021/01/02 03:06:44;;;;;;;45.28;26.08;;;;;;;3.56;82.71;100965.09;10234637;28;20041;-67
2021/01/02 03:11:42;;;;;;;45.63;25.42;;;;;;;3.61;82.71;100975.13;10227385;28;20476;-66
2021/01/02 03:16:38;;;;;;;40.33;23.85;;;;;;;3.61;82.95;100969.72;10210669;28;20116;-66
2021/01/02 03:21:34;;;;;;;50.92;25.95;;;;;;;3.67;82.62;100976.78;10238514;28;20060;-67
2021/01/02 03:26:30;;;;;;;42.92;25.20;;;;;;;3.66;82.88;100982.44;10242137;28;20347;-66
2021/01/02 03:31:26;;;;;;;50.30;27.77;;;;;;;3.70;82.49;100980.84;10217028;28;20053;-66
2021/01/02 03:36:22;;;;;;;46.33;25.52;;;;;;;3.62;83.22;100986.75;10235469;28;20049;-67
2021/01/02 03:41:19;;;;;;;46.90;25.80;;;;;;;3.59;83.70;100991.59;10240884;28;20053;-67
2021/01/02 03:46:15;;;;;;;43.92;25.95;;;;;;;3.67;83.35;100993.00;10232105;28;20059;-67
2021/01/02 03:51:11;;;;;;;50.40;28.52;;;;;;;3.59;83.14;100996.19;10234299;28;20570;-65
2021/01/02 03:56:07;;;;;;;49.25;28.73;;;;;;;3.54;84.07;100988.06;10233783;28;20045;-65
2021/01/02 04:01:03;;;;;;;48.78;29.27;;;;;;;3.58;84.13;100995.38;10219482;28;20480;-65
2021/01/02 04:06:01;;;;;;;46.88;28.33;;;;;;;3.68;83.77;100994.63;10226735;28;20137;-65
2021/01/02 04:10:57;;;;;;;47.42;29.42;;;;;;;3.69;83.64;100995.41;10225851;28;20041;-67
2021/01/02 04:15:54;;;;;;;48.70;29.10;;;;;;;3.85;83.46;100999.00;10221504;28;20041;-67
2021/01/02 04:20:50;;;;;;;44.72;28.42;;;;;;;3.92;82.59;101000.38;10239876;28;20052;-67
2021/01/02 04:25:46;;;;;;;46.72;28.08;;;;;;;3.96;83.05;101006.88;10244930;28;20049;-66
2021/01/02 04:30:45;;;;;;;48.90;28.48;;;;;;;3.82;83.47;101005.75;10228844;28;20060;-65
2021/01/02 04:35:42;;;;;;;47.78;27.30;;;;;;;3.76;83.46;101001.38;10230609;28;20053;-66
2021/01/02 04:40:38;;;;;;;44.45;27.35;;;;;;;3.82;83.01;101002.25;10225301;28;20053;-66
2021/01/02 04:45:35;;;;;;;44.00;28.08;;;;;;;3.85;83.41;101005.22;10235468;28;20045;-66
2021/01/02 04:50:32;;;;;;;43.72;25.77;;;;;;;3.76;83.86;101004.09;10239995;28;20111;-65
2021/01/02 04:55:31;;;;;;;45.22;27.85;;;;;;;3.92;83.50;101005.81;10241781;28;20060;-66
2021/01/02 05:00:27;;;;;;;49.85;26.75;;;;;;;3.90;83.14;101013.38;10229659;28;20080;-65
2021/01/02 05:05:23;;;;;;;46.30;27.73;;;;;;;3.82;83.77;101015.75;10235082;28;20073;-66
2021/01/02 05:10:19;;;;;;;45.42;26.73;;;;;;;3.94;83.37;101013.63;10244358;28;20056;-66
2021/01/02 05:15:16;;;;;;;47.10;27.52;;;;;;;3.85;83.03;101016.03;10220935;28;20053;-65
2021/01/02 05:20:15;;;;;;;44.35;27.58;;;;;;;3.94;83.12;101019.84;10228897;28;20045;-65
2021/01/02 05:25:16;;;;;;;49.50;29.85;;;;;;;3.82;83.20;101019.28;10220184;28;20050;-65
2021/01/02 05:30:19;;;;;;;51.92;30.85;;;;;;;3.91;83.81;101022.28;10229969;28;20470;-65
2021/01/02 05:35:20;;;;;;;42.70;27.58;;;;;;;3.94;83.85;101030.66;10231418;28;20470;-66
2021/01/02 05:40:36;;;;;;;46.38;28.20;;;;;;;3.95;84.08;101032.31;10224119;28;20057;-66
2021/01/02 05:45:32;;;;;;;48.45;28.45;;;;;;;3.97;83.68;101040.97;10219119;28;20073;-66
2021/01/02 05:50:33;;;;;;;47.75;26.17;;;;;;;3.92;84.28;101038.25;10227638;28;20436;-66
2021/01/02 05:55:30;;;;;;;49.22;29.42;;;;;;;3.81;85.42;101047.41;10238418;28;20164;-67
2021/01/02 06:00:27;;;;;;;50.17;28.50;;;;;;;3.72;85.29;101052.50;10226185;28;20042;-67
2021/01/02 06:05:23;;;;;;;48.53;28.80;;;;;;;3.92;85.01;101053.66;10218019;28;20053;-67
2021/01/02 06:10:19;;;;;;;49.33;29.58;;;;;;;3.94;85.20;101063.13;10230349;28;20037;-67
2021/01/02 06:15:16;;;;;;;57.30;31.25;;;;;;;3.97;84.97;101061.81;10237983;28;20139;-66
2021/01/02 06:20:15;;;;;;;55.65;32.65;;;;;;;3.95;84.77;101067.47;10238470;28;20056;-67
2021/01/02 06:25:13;;;;;;;55.80;30.75;;;;;;;3.78;85.31;101064.16;10240345;28;20048;-67
2021/01/02 06:30:14;;;;;;;53.67;31.38;;;;;;;3.83;85.49;101066.91;10222332;28;20039;-67
2021/01/02 06:35:11;;;;;;;51.72;30.45;;;;;;;3.94;84.99;101073.97;10231456;28;20057;-66
2021/01/02 06:40:25;;;;;;;53.65;29.17;;;;;;;3.84;84.84;101068.53;10229810;28;20056;-65
2021/01/02 06:45:39;;;;;;;56.28;32.05;;;;;;;3.85;84.52;101075.53;10229125;28;20045;-66
2021/01/02 06:50:35;;;;;;;52.78;30.00;;;;;;;3.79;84.80;101082.03;10222197;28;20045;-65
2021/01/02 06:55:34;;;;;;;54.80;29.27;;;;;;;3.71;85.00;101085.22;10241700;28;20077;-67
2021/01/02 07:00:35;;;;;;;57.38;30.48;;;;;;;3.73;84.69;101093.88;10228320;28;20052;-66
2021/01/02 07:05:48;;;;;;;55.47;31.58;;;;;;;3.79;84.55;101092.84;10235686;28;20053;-66
2021/01/02 07:10:44;;;;;;;53.47;33.38;;;;;;;3.80;83.86;101099.88;10230050;28;20081;-66
2021/01/02 07:15:40;;;;;;;59.35;32.75;;;;;;;3.80;83.81;101106.09;10221418;28;20073;-67
2021/01/02 07:20:37;;;;;;;57.22;32.03;;;;;;;3.70;84.34;101110.66;10220612;28;20740;-66
2021/01/02 07:25:32;;;;;;;58.22;32.13;;;;;;;3.70;84.09;101116.06;10206778;28;20046;-66
2021/01/02 07:30:32;;;;;;;61.45;33.63;;;;;;;3.62;84.67;101125.47;10221450;28;20057;-67
2021/01/02 07:35:28;;;;;;;57.53;32.40;;;;;;;3.75;84.71;101127.69;10238498;28;20455;-66
2021/01/02 07:40:24;;;;;;;54.15;31.23;;;;;;;3.84;84.49;101138.84;10232731;28;20052;-66
2021/01/02 07:45:22;;;;;;;59.40;33.25;;;;;;;3.98;84.22;101140.00;10229153;28;20054;-66
2021/01/02 07:50:22;;;;;;;56.88;33.17;;;;;;;4.07;83.56;101144.91;10216807;28;20133;-67
2021/01/02 07:55:23;;;;;;;60.10;33.33;;;;;;;4.10;83.64;101163.31;10235773;28;20049;-67
2021/01/02 08:00:21;;;;;;;61.45;31.95;;;;;;;3.88;83.73;101164.31;10211750;28;20459;-67
2021/01/02 08:05:22;;;;;;;52.50;31.90;;;;;;;3.90;83.12;101162.16;10231231;28;20509;-66
2021/01/02 08:10:18;;;;;;;66.25;32.53;;;;;;;3.89;83.40;101175.94;10224481;28;20038;-67
2021/01/02 08:15:24;;;;;;;62.75;33.72;;;;;;;3.88;83.47;101177.84;10218780;28;20103;-68
2021/01/02 08:20:20;;;;;;;57.20;32.35;;;;;;;3.89;83.93;101186.75;10205351;28;20561;-67
2021/01/02 08:25:17;;;;;;;60.28;32.92;;;;;;;3.91;83.19;101193.53;10213192;28;20667;-66
2021/01/02 08:30:15;;;;;;;55.25;31.90;;;;;;;3.86;83.13;101196.22;10205130;28;20124;-68
2021/01/02 08:35:19;;;;;;;55.17;31.13;;;;;;;3.90;83.29;101204.59;10221749;28;20124;-67
2021/01/02 08:40:17;;;;;;;61.60;33.90;;;;;;;3.84;83.58;101208.38;10207472;28;20081;-66
2021/01/02 08:45:27;;;;;;;61.67;32.63;;;;;;;3.93;83.92;101217.63;10212989;28;20057;-66
2021/01/02 08:50:24;;;;;;;59.60;33.28;;;;;;;4.05;83.41;101225.53;10203180;28;20099;-66
2021/01/02 08:55:20;;;;;;;66.55;33.45;;;;;;;3.89;83.93;101228.16;10209011;28;20115;-67
2021/01/02 09:00:26;;;;;;;63.80;32.90;;;;;;;3.96;83.21;101239.56;10199688;28;20045;-67
2021/01/02 09:05:30;;;;;;;59.20;32.45;;;;;;;4.00;83.29;101240.66;10198816;28;20217;-67
2021/01/02 09:10:29;;;;;;;66.07;33.90;;;;;;;3.97;83.03;101240.38;10208640;28;20077;-66
2021/01/02 09:15:47;;;;;;;60.92;32.10;;;;;;;3.95;83.37;101243.34;10200989;28;20050;-66
2021/01/02 09:20:44;;;;;;;62.38;33.83;;;;;;;4.06;83.50;101248.81;10194342;28;20079;-66
2021/01/02 09:25:40;;;;;;;64.50;32.85;;;;;;;3.98;83.31;101253.63;10203274;28;20074;-66
2021/01/02 09:30:36;;;;;;;58.40;32.05;;;;;;;4.04;83.04;101267.19;10201766;28;20052;-66
2021/01/02 09:35:32;;;;;;;59.63;31.42;;;;;;;4.11;82.46;101273.22;10199407;28;20037;-66
2021/01/02 09:40:29;;;;;;;63.92;33.58;;;;;;;4.03;83.18;101276.41;10194783;28;20069;-66
2021/01/02 09:45:25;;;;;;;64.85;32.40;;;;;;;3.82;84.22;101276.25;10193221;28;20049;-66
2021/01/02 09:50:21;;;;;;;60.95;33.63;;;;;;;4.03;83.30;101276.41;10201511;28;20045;-66
2021/01/02 09:55:17;;;;;;;60.97;31.45;;;;;;;4.03;82.67;101276.41;10208234;28;20054;-66
2021/01/02 10:00:14;;;;;;;66.18;33.78;;;;;;;4.07;82.91;101282.94;10220967;28;20478;-66
2021/01/02 10:05:13;;;;;;;62.55;35.42;;;;;;;4.19;82.75;101286.25;10212442;28;20057;-66
2021/01/02 10:10:11;;;;;;;66.72;33.70;;;;;;;4.33;82.60;101282.00;10209904;28;20038;-67
2021/01/02 10:15:08;;;;;;;60.55;32.35;;;;;;;4.29;82.07;101288.19;10209094;28;20045;-66
2021/01/02 10:20:06;;;;;;;60.78;33.28;;;;;;;4.44;81.51;101291.00;10215952;28;20049;-66
2021/01/02 10:25:04;;;;;;;66.53;35.80;;;;;;;4.45;81.90;101299.94;10219328;28;20053;-67
2021/01/02 10:30:01;;;;;;;64.05;35.72;;;;;;;4.41;81.90;101289.63;10200621;28;20049;-65
2021/01/02 10:34:57;;;;;;;67.10;36.38;;;;;;;4.52;81.35;101300.50;10209452;28;20049;-67
2021/01/02 10:39:54;;;;;;;59.38;34.20;;;;;;;4.53;81.07;101299.47;10209051;28;20314;-67
2021/01/02 10:44:50;;;;;;;57.75;32.95;;;;;;;4.57;81.43;101298.66;10208758;28;20107;-67
2021/01/02 10:49:47;;;;;;;53.90;32.60;;;;;;;4.42;81.35;101296.69;10217791;28;20535;-66
2021/01/02 10:54:46;;;;;;;46.72;27.27;;;;;;;4.31;82.54;101299.59;10211299;28;20057;-67
2021/01/02 10:59:44;;;;;;;53.70;27.95;;;;;;;4.39;82.70;101302.63;10190803;28;20092;-67
2021/01/02 11:04:41;;;;;;;47.42;28.65;;;;;;;4.50;82.82;101302.66;10199208;28;20077;-69
2021/01/02 11:09:37;;;;;;;56.03;32.53;;;;;;;4.51;83.28;101299.72;10214081;28;20508;-67
2021/01/02 11:14:33;;;;;;;64.25;35.70;;;;;;;4.34;83.84;101310.72;10210024;28;20046;-68
2021/01/02 11:19:29;;;;;;;69.13;39.33;;;;;;;4.29;83.70;101304.44;10206905;28;20050;-67
2021/01/02 11:24:28;;;;;;;70.25;38.47;;;;;;;4.23;83.16;101309.03;10207610;28;20064;-66
2021/01/02 11:29:26;;;;;;;77.68;41.65;;;;;;;4.15;83.99;101304.88;10210374;28;20112;-66
2021/01/02 11:34:24;;;;;;;78.18;37.92;;;;;;;4.12;83.83;101299.19;10192228;28;20183;-67
2021/01/02 11:39:20;;;;;;;70.32;38.33;;;;;;;4.25;83.43;101298.75;10197056;28;20135;-65
2021/01/02 11:44:20;;;;;;;71.45;36.58;;;;;;;4.28;83.89;101295.50;10195324;28;20049;-68
2021/01/02 11:49:19;;;;;;;67.50;36.50;;;;;;;4.33;83.86;101298.25;10205356;28;20791;-68
2021/01/02 11:54:15;;;;;;;67.82;37.80;;;;;;;4.32;83.41;101302.03;10209037;28;20049;-67
2021/01/02 11:59:11;;;;;;;70.03;36.28;;;;;;;4.37;83.79;101304.78;10207546;28;20050;-67
2021/01/02 12:04:09;;;;;;;65.53;36.30;;;;;;;4.44;83.46;101299.13;10208453;28;20571;-67
2021/01/02 12:09:07;;;;;;;71.97;36.85;;;;;;;4.39;83.09;101301.81;10211703;28;20148;-65
2021/01/02 12:14:05;;;;;;;65.63;34.40;;;;;;;4.41;83.16;101300.47;10207823;28;20091;-65
2021/01/02 12:19:03;;;;;;;64.78;36.88;;;;;;;4.52;83.01;101305.94;10215548;28;20049;-63
2021/01/02 12:23:59;;;;;;;63.80;35.33;;;;;;;4.46;82.93;101312.41;10216353;28;20133;-64
2021/01/02 12:28:55;;;;;;;68.15;34.90;;;;;;;4.49;82.08;101306.47;10207925;28;20049;-63
2021/01/02 12:34:14;;;;;;;66.38;35.38;;;;;;;4.54;82.29;101304.59;10217702;28;20042;-64
2021/01/02 12:39:14;;;;;;;63.72;36.67;;;;;;;4.59;82.46;101301.09;10207612;28;20038;-64
2021/01/02 12:44:12;;;;;;;71.35;39.90;;;;;;;4.61;82.47;101304.34;10217648;28;20246;-65
2021/01/02 12:49:09;;;;;;;68.18;38.15;;;;;;;4.58;82.32;101300.28;10216242;28;20930;-65
2021/01/02 12:54:05;;;;;;;63.20;37.60;;;;;;;4.60;82.51;101310.88;10200220;28;20558;-66
2021/01/02 12:59:01;;;;;;;66.30;36.72;;;;;;;4.63;81.75;101313.84;10212187;28;20037;-65
2021/01/02 13:03:57;;;;;;;66.93;38.28;;;;;;;4.62;81.61;101316.84;10195220;28;20053;-67
2021/01/02 13:08:53;;;;;;;66.75;36.85;;;;;;;4.62;81.90;101316.84;10189817;28;20045;-66
2021/01/02 13:13:49;;;;;;;62.45;35.45;;;;;;;4.58;81.74;101311.13;10187946;28;20046;-65
2021/01/02 13:18:46;;;;;;;63.00;34.95;;;;;;;4.70;82.20;101316.31;10186366;28;20119;-66
2021/01/02 13:23:43;;;;;;;58.65;34.67;;;;;;;4.75;81.79;101316.34;10197551;28;20046;-66
2021/01/02 13:28:43;;;;;;;57.55;32.13;;;;;;;4.78;82.91;101321.25;10201545;28;20575;-65
2021/01/02 13:33:39;;;;;;;54.08;29.60;;;;;;;4.83;82.69;101318.56;10204919;28;20081;-65
2021/01/02 13:38:35;;;;;;;49.90;28.73;;;;;;;4.90;83.48;101322.91;10213118;28;20041;-65
2021/01/02 13:43:31;;;;;;;39.75;24.63;;;;;;;4.96;82.60;101322.66;10236099;28;22715;-64
2021/01/02 13:48:27;;;;;;;43.17;24.27;;;;;;;5.00;82.72;101326.47;10230239;28;20136;-65
2021/01/02 13:53:23;;;;;;;43.30;24.75;;;;;;;5.01;83.09;101330.00;10231031;28;20418;-65
2021/01/02 13:58:19;;;;;;;45.55;25.42;;;;;;;5.00;83.33;101331.91;10227104;28;20501;-64
2021/01/02 14:03:15;;;;;;;43.00;23.80;;;;;;;5.00;83.52;101340.03;10231798;28;20045;-64
2021/01/02 14:08:11;;;;;;;40.72;24.25;;;;;;;5.01;83.04;101338.97;10211525;28;20504;-64
2021/01/02 14:13:07;;;;;;;43.72;25.25;;;;;;;4.98;82.15;101333.25;10205337;28;20049;-64
2021/01/02 14:18:04;;;;;;;53.15;30.15;;;;;;;5.04;80.99;101341.13;10210205;28;21081;-64
2021/01/02 14:23:00;;;;;;;47.88;28.13;;;;;;;4.96;80.51;101346.25;10202234;28;20048;-66
2021/01/02 14:27:56;;;;;;;52.03;28.77;;;;;;;4.99;81.24;101353.84;10222620;28;20118;-64
2021/01/02 14:32:52;;;;;;;49.03;29.85;;;;;;;4.96;80.30;101343.53;10222915;28;20049;-64
2021/01/02 14:37:50;;;;;;;53.25;30.40;;;;;;;5.02;81.41;101356.03;10203011;28;20041;-66
2021/01/02 14:42:46;;;;;;;51.22;31.83;;;;;;;5.03;81.22;101357.66;10188208;28;20058;-65
2021/01/02 14:47:42;;;;;;;52.70;30.88;;;;;;;5.02;82.28;101364.16;10193876;28;20044;-65
2021/01/02 14:52:38;;;;;;;53.60;33.63;;;;;;;5.04;81.68;101372.84;10203794;28;20054;-63
2021/01/02 14:57:34;;;;;;;59.13;33.17;;;;;;;5.11;81.82;101381.53;10215896;28;20077;-64
2021/01/02 15:02:31;;;;;;;51.42;31.88;;;;;;;5.09;81.96;101389.13;10202422;28;20046;-65
2021/01/02 15:07:27;;;;;;;57.97;31.15;;;;;;;5.01;81.57;101397.75;10199499;28;20115;-67
2021/01/02 15:12:23;;;;;;;50.95;29.65;;;;;;;5.03;81.40;101398.31;10212987;28;20057;-66
2021/01/02 15:17:19;;;;;;;51.67;29.35;;;;;;;4.99;81.03;101402.63;10217506;28;20139;-66
2021/01/02 15:22:15;;;;;;;48.70;28.08;;;;;;;4.93;81.76;101403.69;10223911;28;20079;-65
2021/01/02 15:27:11;;;;;;;51.40;27.58;;;;;;;4.93;82.00;101409.09;10195444;28;20100;-65
2021/01/02 15:32:08;;;;;;;49.85;27.80;;;;;;;4.91;81.92;101416.69;10204597;28;20037;-65
2021/01/02 15:37:04;;;;;;;51.80;29.20;;;;;;;4.84;82.12;101428.56;10206071;28;20746;-66
2021/01/02 15:42:04;;;;;;;55.38;27.63;;;;;;;4.86;82.22;101431.00;10224111;28;20064;-66
2021/01/02 15:47:21;;;;;;;52.22;28.80;;;;;;;4.85;81.43;101434.81;10216042;28;20045;-65
2021/01/02 15:52:21;;;;;;;50.30;28.08;;;;;;;4.81;82.21;101434.50;10220646;28;20458;-66
2021/01/02 15:57:19;;;;;;;51.35;28.52;;;;;;;4.80;81.65;101430.19;10226211;28;20059;-67
2021/01/02 16:02:15;;;;;;;49.90;27.65;;;;;;;4.78;81.80;101440.47;10201437;28;20145;-67
2021/01/02 16:07:12;;;;;;;47.60;27.77;;;;;;;4.78;81.38;101445.03;10228591;28;20079;-66
2021/01/02 16:12:11;;;;;;;49.35;27.50;;;;;;;4.76;81.57;101442.59;10225272;28;20455;-67
2021/01/02 16:17:08;;;;;;;57.13;29.67;;;;;;;4.72;81.42;101446.91;10229901;28;20045;-66
2021/01/02 16:22:08;;;;;;;55.15;29.02;;;;;;;4.70;81.83;101449.06;10234376;28;20459;-67
2021/01/02 16:27:06;;;;;;;55.63;28.58;;;;;;;4.72;81.33;101456.94;10228291;28;20427;-66
2021/01/02 16:32:10;;;;;;;56.97;29.85;;;;;;;4.74;81.50;101452.88;10229680;28;20048;-65
2021/01/02 16:37:20;;;;;;;58.92;28.60;;;;;;;4.70;82.36;101454.47;10228528;28;20501;-66
2021/01/02 16:42:18;;;;;;;69.43;31.20;;;;;;;4.74;82.62;101455.59;10221298;28;20061;-65
2021/01/02 16:47:28;;;;;;;69.80;32.97;;;;;;;4.79;82.55;101462.94;10218717;28;20049;-69
2021/01/02 16:52:27;;;;;;;63.72;31.15;;;;;;;4.83;82.66;101472.19;10213556;28;20045;-66
2021/01/02 16:57:30;;;;;;;59.03;30.13;;;;;;;4.83;83.08;101470.28;10211969;28;20046;-66
2021/01/02 17:02:26;;;;;;;62.38;31.17;;;;;;;4.84;82.41;101477.31;10223381;28;20689;-66
2021/01/02 17:07:24;;;;;;;66.28;30.98;;;;;;;4.89;82.62;101479.25;10215023;28;20076;-66
2021/01/02 17:12:21;;;;;;;61.88;31.38;;;;;;;4.98;82.18;101487.72;10204532;28;20069;-64
2021/01/02 17:17:17;;;;;;;66.13;30.58;;;;;;;4.92;81.99;101489.59;10207434;28;20050;-64
2021/01/02 17:22:13;;;;;;;65.25;29.65;;;;;;;4.93;81.39;101491.22;10208320;28;20054;-65
2021/01/02 17:27:11;;;;;;;63.45;31.05;;;;;;;4.97;81.31;101499.66;10203447;28;20116;-67
2021/01/02 17:32:13;;;;;;;74.03;28.75;;;;;;;4.92;82.00;101495.00;10213540;28;21720;-66
2021/01/02 17:37:15;;;;;;;61.63;28.27;;;;;;;4.88;83.02;101501.22;10238971;28;20560;-66
2021/01/02 17:42:15;;;;;;;58.10;29.05;;;;;;;4.85;82.72;101495.25;10219118;28;20077;-67
2021/01/02 17:47:14;;;;;;;68.03;30.23;;;;;;;4.83;82.88;101497.38;10225116;28;20092;-65
2021/01/02 17:52:10;;;;;;;55.50;26.58;;;;;;;4.85;82.58;101502.56;10222451;28;20045;-64
2021/01/02 17:57:06;;;;;;;51.22;25.75;;;;;;;4.87;82.94;101496.84;10216818;28;20076;-66
2021/01/02 18:02:03;;;;;;;47.78;24.98;;;;;;;4.77;83.12;101509.25;10222996;28;20103;-66
2021/01/02 18:06:59;;;;;;;57.20;27.95;;;;;;;4.90;81.83;101507.16;10201270;28;20052;-66
2021/01/02 18:11:56;;;;;;;48.78;26.38;;;;;;;4.89;81.41;101505.53;10213711;28;20057;-65
2021/01/02 18:17:00;;;;;;;59.47;30.08;;;;;;;4.90;81.60;101504.47;10219556;28;20042;-65
2021/01/02 18:21:58;;;;;;;55.58;26.50;;;;;;;4.85;81.81;101510.69;10226056;28;20053;-65
2021/01/02 18:26:55;;;;;;;53.90;26.77;;;;;;;4.78;82.88;101516.31;10210549;28;20058;-67
2021/01/02 18:31:52;;;;;;;55.83;27.30;;;;;;;4.84;82.80;101520.69;10215913;28;20520;-66
2021/01/02 18:36:55;;;;;;;55.35;28.80;;;;;;;4.84;82.76;101526.09;10195723;28;20060;-65
2021/01/02 18:41:56;;;;;;;55.33;27.70;;;;;;;4.91;82.40;101530.50;10208162;28;20045;-65
2021/01/02 18:47:04;;;;;;;53.50;27.95;;;;;;;4.95;82.67;101532.44;10208243;28;20045;-65
2021/01/02 18:52:03;;;;;;;60.55;30.52;;;;;;;4.94;82.61;101535.38;10210640;28;20069;-63
2021/01/02 18:57:00;;;;;;;58.53;30.42;;;;;;;4.97;82.97;101541.13;10213651;28;20556;-66
2021/01/02 19:01:59;;;;;;;60.35;29.38;;;;;;;5.05;81.78;101547.94;10224811;28;20052;-64
2021/01/02 19:07:02;;;;;;;62.53;31.45;;;;;;;5.07;82.19;101553.91;10199717;28;20111;-64
2021/01/02 19:12:01;;;;;;;59.53;30.83;;;;;;;5.09;82.14;101546.34;10206268;28;20045;-67
2021/01/02 19:16:58;;;;;;;58.80;28.05;;;;;;;5.11;82.05;101552.34;10222053;28;20155;-66
2021/01/02 19:21:54;;;;;;;66.38;31.70;;;;;;;4.99;82.25;101551.69;10213951;28;20156;-64
2021/01/02 19:26:54;;;;;;;63.50;30.38;;;;;;;5.16;81.30;101555.06;10215050;28;20064;-66
2021/01/02 19:31:57;;;;;;;59.85;30.70;;;;;;;5.24;81.25;101551.03;10216434;28;20374;-65
2021/01/02 19:36:56;;;;;;;61.90;30.13;;;;;;;5.25;80.83;101553.50;10219568;28;20042;-66
2021/01/02 19:42:14;;;;;;;57.38;29.23;;;;;;;5.27;81.30;101551.34;10210822;28;20147;-65
2021/01/02 19:47:14;;;;;;;63.03;30.60;;;;;;;5.33;80.79;101554.09;10199582;28;20049;-65
2021/01/02 19:52:12;;;;;;;60.25;28.88;;;;;;;5.26;80.12;101560.53;10186512;28;20123;-65
2021/01/02 19:57:12;;;;;;;65.10;28.27;;;;;;;5.19;81.62;101559.97;10195374;28;20053;-66
2021/01/02 20:02:14;;;;;;;64.38;30.52;;;;;;;5.09;81.43;101564.50;10201966;28;20040;-65
2021/01/02 20:07:14;;;;;;;65.97;28.23;;;;;;;5.06;81.45;101571.28;10204958;28;20140;-65
2021/01/02 20:12:10;;;;;;;58.17;28.48;;;;;;;5.05;81.81;101569.63;10216388;28;20060;-65
2021/01/02 20:17:08;;;;;;;54.08;26.23;;;;;;;5.09;82.06;101565.31;10210649;28;20056;-65
2021/01/02 20:22:06;;;;;;;50.38;27.80;;;;;;;5.15;81.51;101569.72;10218740;28;20056;-65
2021/01/02 20:27:10;;;;;;;54.42;27.55;;;;;;;5.12;81.55;101575.63;10214880;28;20113;-63
2021/01/02 20:32:15;;;;;;;52.40;28.27;;;;;;;5.05;80.91;101586.69;10210390;28;20049;-65
2021/01/02 20:37:15;;;;;;;54.67;26.40;;;;;;;4.75;81.63;101587.25;10203423;28;20498;-66
2021/01/02 20:42:17;;;;;;;50.25;26.65;;;;;;;4.96;81.09;101587.44;10195040;28;20115;-65
2021/01/02 20:47:14;;;;;;;47.03;25.13;;;;;;;4.93;81.78;101587.97;10211039;28;20045;-65
2021/01/02 20:52:12;;;;;;;48.55;25.30;;;;;;;4.94;80.99;101595.00;10181116;28;20373;-65
2021/01/02 20:57:08;;;;;;;45.78;24.20;;;;;;;4.93;81.24;101587.97;10194632;28;20054;-66
2021/01/02 21:02:06;;;;;;;45.08;22.45;;;;;;;4.87;80.64;101594.41;10217996;28;20048;-66
2021/01/02 21:07:05;;;;;;;46.42;23.05;;;;;;;4.88;81.10;101601.47;10213087;28;20117;-66
2021/01/02 21:12:02;;;;;;;53.83;25.83;;;;;;;4.82;80.91;101587.88;10217977;28;20049;-66
2021/01/02 21:17:09;;;;;;;47.50;23.60;;;;;;;4.83;80.89;101600.34;10204345;28;20108;-64
2021/01/02 21:22:12;;;;;;;49.88;26.38;;;;;;;4.87;81.17;101599.81;10199486;28;20119;-66
2021/01/02 21:27:14;;;;;;;55.45;25.27;;;;;;;4.77;81.53;101617.63;10222648;28;20054;-66
2021/01/02 21:32:27;;;;;;;44.10;22.80;;;;;;;4.80;81.20;101622.56;10214018;28;20124;-65
2021/01/02 21:37:25;;;;;;;;;;;;;;;4.82;81.31;101631.22;10227561;28;20052;-65
2021/01/02 21:42:22;;;;;;;48.97;25.25;;;;;;;4.87;81.81;101632.34;10199953;28;19921;-65
2021/01/02 21:47:41;;;;;;;51.92;26.15;;;;;;;4.84;81.08;101634.50;10223378;28;20634;-65
2021/01/02 21:52:39;;;;;;;57.50;27.27;;;;;;;4.74;81.68;101634.41;10226008;28;20100;-67
2021/01/02 21:57:35;;;;;;;59.25;28.85;;;;;;;4.72;81.02;101631.13;10228681;28;20065;-65
2021/01/02 22:02:32;;;;;;;57.22;29.00;;;;;;;4.82;81.31;101641.25;10224205;28;20073;-65
2021/01/02 22:07:35;;;;;;;56.10;28.67;;;;;;;4.79;81.60;101645.28;10221877;28;20778;-65
2021/01/02 22:12:32;;;;;;;58.50;27.80;;;;;;;4.69;82.00;101645.19;10236695;28;20069;-65
2021/01/02 22:17:28;;;;;;;61.17;30.58;;;;;;;4.52;82.71;101658.81;10196193;28;20046;-65
2021/01/02 22:22:24;;;;;;;64.55;31.45;;;;;;;4.55;82.39;101662.91;10212461;28;20077;-65
2021/01/02 22:27:20;;;;;;;59.28;28.73;;;;;;;4.70;81.94;101660.38;10218711;28;20048;-65
2021/01/02 22:32:16;;;;;;;60.30;30.08;;;;;;;4.56;81.92;101659.13;10218020;28;20053;-65
2021/01/02 22:37:12;;;;;;;66.03;30.25;;;;;;;4.28;82.62;101663.69;10228847;28;20040;-66